METAR EDWI 181420Z AUTO 25006KT 5000 SCT009 OVC019 18/16 Q1017=

Die Wetterinformationen haben nur informativen Charakter
und dürfen nicht zum Zwecke der Flugplanung benutzt werden.

Heute ist
Montag, 18.06.2018
Sonnenaufgang
04:55 MESZ
Sonnenuntergang
22:01 MESZ

Platzöffnung
09:00 - 19:30 MESZ

StartseiteAktuelles

Sie möchten das Wetter oder die Webcams auf ihr Smartphone / Tablet-PC bekommen? Dann scannen sie doch einfach die QR-Codes in ihr Gerät. Klicken sie einfach hier


Der Luftfahrttechnische Betrieb Wilhelm Tank bietet an:

  • Jetzt auch Wartung für UL, Motorsegler und Flugzeuge in Kunststoff-Bauweise.
  • Bei Wartungsaufenthalt kostenloses Mietfahrrad.
  • Kaffee bis zum Abwinken.
  • Näheres unter  04421 - 20 10 10 und auf der Homepage.

Flugschule Wilfried Möhle bietet an:

  • Kunstflugausbildung und Schnupperkurse mit der CAP 10.
  • Info unter  0176 280 175 86 oder auf der Homepage
Go to top